Time;durP1;ratioP1;P1;durP2;ratioP2;P2;SDS_P1;SDS_P2;PMS_P1;PMS_P2;Temp;Humidity;BMP_temperature;BMP_pressure;BME280_temperature;BME280_humidity;BME280_pressure;Samples;Min_cycle;Max_cycle;Signal;HPM_P1;HPM_P2
2021/11/01 00:00:44;;;;;;;28.42;4.15;;;10.10;99.90;;;;;;4958361;28;20671;-78
2021/11/01 00:03:10;;;;;;;28.45;3.92;;;10.00;99.90;;;;;;4974519;28;20038;-78
2021/11/01 00:05:36;;;;;;;31.05;4.07;;;10.10;99.90;;;;;;4990290;28;20035;-79
2021/11/01 00:08:01;;;;;;;31.08;4.43;;;10.10;99.90;;;;;;4974351;28;20379;-79
2021/11/01 00:10:27;;;;;;;36.65;4.32;;;10.10;99.90;;;;;;4973490;28;20089;-79
2021/11/01 00:12:53;;;;;;;33.80;4.47;;;10.00;99.90;;;;;;4974463;28;20050;-79
2021/11/01 00:15:18;;;;;;;32.28;4.47;;;10.00;99.90;;;;;;4974177;28;20051;-79
2021/11/01 00:17:44;;;;;;;33.65;4.45;;;10.00;99.90;;;;;;4990415;28;20054;-79
2021/11/01 00:20:10;;;;;;;33.38;4.15;;;10.10;99.90;;;;;;4990800;28;20083;-79
2021/11/01 00:22:37;;;;;;;36.08;4.07;;;10.00;99.90;;;;;;4967362;28;20046;-79
2021/11/01 00:25:05;;;;;;;32.90;4.13;;;10.10;99.90;;;;;;4976373;28;20055;-78
2021/11/01 00:27:31;;;;;;;35.75;4.45;;;10.00;99.90;;;;;;4993648;28;20073;-79
2021/11/01 00:29:57;;;;;;;30.52;3.97;;;10.00;99.90;;;;;;4977146;28;20480;-79
2021/11/01 00:32:22;;;;;;;36.35;4.30;;;9.90;99.90;;;;;;4977572;28;20049;-78
2021/11/01 00:34:48;;;;;;;34.58;4.32;;;10.00;99.90;;;;;;4976947;28;20074;-79
2021/11/01 00:37:14;;;;;;;37.28;4.78;;;10.00;99.90;;;;;;4977357;28;20045;-79
2021/11/01 00:39:39;;;;;;;24.35;3.47;;;10.00;99.90;;;;;;4976474;28;20046;-79
2021/11/01 00:42:06;;;;;;;46.50;4.57;;;10.00;99.90;;;;;;4977417;28;20038;-79
2021/11/01 00:44:32;;;;;;;33.45;4.50;;;10.00;99.90;;;;;;4993324;28;20038;-79
2021/11/01 00:46:58;;;;;;;31.95;3.83;;;9.90;99.90;;;;;;4976942;28;20501;-79
2021/11/01 00:49:26;;;;;;;26.25;3.85;;;10.00;99.90;;;;;;4994826;28;20065;-79
2021/11/01 00:51:54;;;;;;;29.40;4.03;;;10.00;99.90;;;;;;4977143;28;20043;-79
2021/11/01 00:54:20;;;;;;;34.33;4.22;;;9.90;99.90;;;;;;4976294;28;20077;-79
2021/11/01 00:56:46;;;;;;;36.38;4.53;;;9.90;99.90;;;;;;4961312;28;20405;-79
2021/11/01 00:59:12;;;;;;;27.98;3.95;;;10.00;99.90;;;;;;4976808;28;20128;-79
2021/11/01 01:01:39;;;;;;;25.55;4.47;;;10.00;99.90;;;;;;4976953;28;20569;-79
2021/11/01 01:04:05;;;;;;;30.27;4.57;;;9.90;99.90;;;;;;4960584;28;20512;-79
2021/11/01 01:06:30;;;;;;;29.65;4.00;;;10.00;99.90;;;;;;4960373;28;20046;-79
2021/11/01 01:08:56;;;;;;;32.60;3.63;;;10.00;99.90;;;;;;4959636;28;20077;-78
2021/11/01 01:11:22;;;;;;;36.92;4.55;;;10.00;99.90;;;;;;4976249;28;20034;-79
2021/11/01 01:13:51;;;;;;;31.85;4.00;;;10.00;99.90;;;;;;4976724;28;20126;-79
2021/11/01 01:16:27;;;;;;;27.88;3.65;;;9.90;99.90;;;;;;4992689;28;20113;-79
2021/11/01 01:18:58;;;;;;;33.20;4.13;;;9.90;99.90;;;;;;4960331;28;20430;-79
2021/11/01 01:24:10;;;;;;;31.85;4.03;;;9.90;99.90;;;;;;4975203;28;20042;-79
2021/11/01 01:26:37;;;;;;;34.58;4.18;;;9.80;99.90;;;;;;4960320;28;20092;-79
2021/11/01 01:29:04;;;;;;;32.47;4.13;;;9.80;99.90;;;;;;4992279;28;20060;-78
2021/11/01 01:31:31;;;;;;;27.95;3.97;;;9.80;99.90;;;;;;4975746;28;20053;-78
2021/11/01 01:33:57;;;;;;;27.30;3.80;;;9.90;99.90;;;;;;4992395;28;20050;-79
2021/11/01 01:36:23;;;;;;;28.35;4.38;;;9.80;99.90;;;;;;4976287;28;20049;-79
2021/11/01 01:38:50;;;;;;;27.77;3.65;;;9.80;99.90;;;;;;4993046;28;20046;-79
2021/11/01 01:41:27;;;;;;;35.20;4.00;;;9.70;99.90;;;;;;4981765;28;20085;-79
2021/11/01 01:43:57;;;;;;;26.98;3.78;;;9.60;99.90;;;;;;4976326;28;20400;-78
2021/11/01 01:46:24;;;;;;;25.02;3.63;;;9.70;99.90;;;;;;4993378;28;20042;-79
2021/11/01 01:48:52;;;;;;;41.13;4.35;;;9.70;99.90;;;;;;4988607;28;20061;-79
2021/11/01 01:51:19;;;;;;;24.77;4.18;;;9.70;99.90;;;;;;4988922;28;20081;-79
2021/11/01 01:53:45;;;;;;;34.42;4.20;;;9.80;99.90;;;;;;4981557;28;20043;-79
2021/11/01 01:56:11;;;;;;;22.10;3.35;;;9.70;99.90;;;;;;4988086;28;20054;-79
2021/11/01 01:58:49;;;;;;;24.10;3.30;;;9.70;99.90;;;;;;4956292;28;20089;-78
2021/11/01 02:01:16;;;;;;;20.23;3.60;;;9.70;99.90;;;;;;4972275;28;20056;-78
2021/11/01 02:03:46;;;;;;;23.58;3.22;;;9.70;99.90;;;;;;4988322;28;20465;-78
2021/11/01 02:06:23;;;;;;;25.88;3.85;;;9.60;99.90;;;;;;4972193;28;20051;-79
2021/11/01 02:09:07;;;;;;;28.55;4.15;;;9.70;99.90;;;;;;4939670;28;20462;-79
2021/11/01 02:11:45;;;;;;;27.63;3.78;;;9.60;99.90;;;;;;4956203;28;20081;-79
2021/11/01 02:14:12;;;;;;;25.90;3.65;;;9.60;99.90;;;;;;4956050;28;20072;-79
2021/11/01 02:16:41;;;;;;;26.38;3.83;;;9.60;99.90;;;;;;4971967;28;20097;-79
2021/11/01 02:19:10;;;;;;;23.27;3.95;;;9.60;99.90;;;;;;4988574;28;20121;-79
2021/11/01 02:21:54;;;;;;;29.33;4.47;;;9.60;99.90;;;;;;4957334;28;20046;-79
2021/11/01 02:24:44;;;;;;;40.67;4.32;;;9.60;99.90;;;;;;4958222;28;20068;-79
2021/11/01 02:27:12;;;;;;;25.38;3.33;;;9.50;99.90;;;;;;4991229;28;20031;-79
2021/11/01 02:29:45;;;;;;;31.45;4.68;;;9.50;99.90;;;;;;4974731;28;20536;-79
2021/11/01 02:32:12;;;;;;;23.13;3.50;;;9.40;99.90;;;;;;4975194;28;20556;-79
2021/11/01 02:34:39;;;;;;;27.02;3.15;;;9.40;99.90;;;;;;4974677;28;20046;-79
2021/11/01 02:37:05;;;;;;;22.40;3.45;;;9.40;99.90;;;;;;4991462;28;20552;-79
2021/11/01 02:39:32;;;;;;;24.55;3.58;;;9.40;99.90;;;;;;4991716;28;20050;-79
2021/11/01 02:42:00;;;;;;;30.67;3.40;;;9.40;99.90;;;;;;4990997;28;20466;-79
2021/11/01 02:44:28;;;;;;;22.13;3.10;;;9.40;99.90;;;;;;4990964;28;20490;-79
2021/11/01 02:46:54;;;;;;;25.20;3.45;;;9.40;99.90;;;;;;4990657;28;20042;-79
2021/11/01 02:49:21;;;;;;;23.90;3.63;;;9.40;99.90;;;;;;4974631;28;20485;-78
2021/11/01 02:51:47;;;;;;;20.35;2.78;;;9.40;99.90;;;;;;4975232;28;20050;-78
2021/11/01 02:54:12;;;;;;;27.60;3.60;;;9.40;99.90;;;;;;4973847;28;20049;-77
2021/11/01 02:56:38;;;;;;;23.67;3.10;;;9.40;99.90;;;;;;4974936;28;20042;-77
2021/11/01 02:59:04;;;;;;;24.85;3.45;;;9.40;99.90;;;;;;4974994;28;20035;-77
2021/11/01 03:01:30;;;;;;;27.45;3.88;;;9.40;99.90;;;;;;4958617;28;20097;-77
2021/11/01 03:03:56;;;;;;;28.70;3.05;;;9.30;99.90;;;;;;4974378;28;20043;-77
2021/11/01 03:06:24;;;;;;;27.00;3.10;;;9.30;99.90;;;;;;4974665;28;20054;-77
2021/11/01 03:08:52;;;;;;;23.67;3.42;;;9.30;99.90;;;;;;4974289;28;20034;-77
2021/11/01 03:11:19;;;;;;;20.48;3.38;;;9.30;99.90;;;;;;4990665;28;20172;-78
2021/11/01 03:13:45;;;;;;;34.40;3.03;;;9.40;99.90;;;;;;4974804;28;20478;-77
2021/11/01 03:16:11;;;;;;;19.00;2.75;;;9.30;99.90;;;;;;4974611;28;20056;-77
2021/11/01 03:18:47;;;;;;;23.13;3.40;;;9.30;99.90;;;;;;4991036;28;20397;-77
2021/11/01 03:21:17;;;;;;;26.83;3.35;;;9.20;99.90;;;;;;4958582;28;20071;-77
2021/11/01 03:23:49;;;;;;;27.85;3.90;;;9.30;99.90;;;;;;4973961;28;20061;-77
2021/11/01 03:26:21;;;;;;;25.73;3.45;;;9.30;99.90;;;;;;4990765;28;20077;-77
2021/11/01 03:28:51;;;;;;;22.50;2.92;;;9.30;99.90;;;;;;4990865;28;20058;-77
2021/11/01 03:31:20;;;;;;;21.98;3.45;;;9.20;99.90;;;;;;4958431;28;20477;-77
2021/11/01 03:33:45;;;;;;;24.40;2.85;;;9.20;99.90;;;;;;4994157;28;20046;-77
2021/11/01 03:36:12;;;;;;;23.88;3.63;;;9.10;99.90;;;;;;4978656;28;20117;-77
2021/11/01 03:38:39;;;;;;;16.23;2.85;;;9.10;99.90;;;;;;4977739;28;20058;-77
2021/11/01 03:41:08;;;;;;;25.08;3.17;;;9.10;99.90;;;;;;4977607;28;20058;-77
2021/11/01 03:43:42;;;;;;;23.50;2.90;;;9.10;99.90;;;;;;4994559;28;20584;-77
2021/11/01 03:46:08;;;;;;;21.65;3.13;;;9.10;99.90;;;;;;4993787;28;20874;-77
2021/11/01 03:48:38;;;;;;;23.10;2.88;;;9.10;99.90;;;;;;4977778;28;20066;-77
2021/11/01 03:51:11;;;;;;;17.73;3.22;;;9.00;99.90;;;;;;4977997;28;20046;-77
2021/11/01 03:53:38;;;;;;;24.38;3.03;;;9.00;99.90;;;;;;4977517;28;20482;-77
2021/11/01 03:56:05;;;;;;;30.02;3.65;;;9.00;99.90;;;;;;4994090;28;20104;-77
2021/11/01 03:58:32;;;;;;;18.77;3.17;;;9.00;99.90;;;;;;4977764;28;20042;-77
2021/11/01 04:00:58;;;;;;;19.25;2.60;;;9.00;99.90;;;;;;4961705;28;20046;-77
2021/11/01 04:03:26;;;;;;;17.65;2.60;;;9.00;99.90;;;;;;4977875;28;20133;-77
2021/11/01 04:05:57;;;;;;;15.52;2.92;;;9.00;99.90;;;;;;4993962;28;20447;-77
2021/11/01 04:08:23;;;;;;;28.27;3.45;;;8.90;99.90;;;;;;4977349;28;20464;-77
2021/11/01 04:10:49;;;;;;;17.55;3.30;;;9.00;99.90;;;;;;4977469;28;20066;-77
2021/11/01 04:13:16;;;;;;;18.80;2.90;;;9.00;99.90;;;;;;4977268;28;20134;-77
2021/11/01 04:15:46;;;;;;;17.10;2.95;;;8.90;99.90;;;;;;4977907;28;20050;-77
2021/11/01 04:18:23;;;;;;;18.30;2.80;;;8.90;99.90;;;;;;4993944;28;20065;-77
2021/11/01 04:20:55;;;;;;;26.23;3.03;;;8.90;99.90;;;;;;4978130;28;20049;-77
2021/11/01 04:23:27;;;;;;;24.50;2.92;;;8.90;99.90;;;;;;4964472;28;20490;-77
2021/11/01 04:25:53;;;;;;;25.63;3.38;;;8.90;99.90;;;;;;4960825;28;20343;-78
2021/11/01 04:28:18;;;;;;;21.45;2.80;;;8.90;99.90;;;;;;4977416;28;20057;-77
2021/11/01 04:30:49;;;;;;;21.15;2.50;;;8.80;99.90;;;;;;4961140;28;20120;-77
2021/11/01 04:33:19;;;;;;;24.15;3.05;;;8.80;99.90;;;;;;4977183;28;20050;-77
2021/11/01 04:35:44;;;;;;;20.63;3.13;;;8.80;99.90;;;;;;4977152;28;20053;-77
2021/11/01 04:40:52;;;;;;;15.80;2.90;;;8.70;99.90;;;;;;4977261;28;20390;-77
2021/11/01 04:54:15;;;;;;;16.92;3.00;;;8.70;99.90;;;;;;4940815;29;20559;-77
2021/11/01 04:56:42;;;;;;;22.63;3.15;;;8.70;99.90;;;;;;4953652;29;20066;-78
2021/11/01 04:59:09;;;;;;;17.35;2.40;;;8.60;99.90;;;;;;4938028;29;20134;-77
2021/11/01 05:01:39;;;;;;;22.83;3.05;;;8.70;99.90;;;;;;4922451;29;20519;-78
2021/11/01 05:04:07;;;;;;;14.40;2.42;;;8.70;99.90;;;;;;4961996;23;20047;-77
2021/11/01 05:06:34;;;;;;;14.25;2.70;;;8.70;99.90;;;;;;4922442;29;20114;-77
2021/11/01 05:09:08;;;;;;;19.80;2.63;;;8.60;99.90;;;;;;4938103;29;20502;-77
2021/11/01 05:14:13;;;;;;;;;;;8.70;99.90;;;;;;4938575;29;20204;-78
2021/11/01 05:17:04;;;;;;;15.38;2.30;;;8.60;99.90;;;;;;4922143;29;19929;-78
2021/11/01 05:19:34;;;;;;;14.27;2.63;;;8.60;99.90;;;;;;4922243;29;20078;-77
2021/11/01 05:22:08;;;;;;;13.82;2.50;;;8.60;99.90;;;;;;4922257;29;20051;-77
2021/11/01 05:27:23;;;;;;;17.73;2.58;;;8.70;99.90;;;;;;4939327;29;20070;-78
2021/11/01 05:29:53;;;;;;;15.45;2.42;;;8.60;99.90;;;;;;4938598;29;20161;-78
2021/11/01 05:32:25;;;;;;;10.65;1.90;;;8.50;99.90;;;;;;4921666;29;20175;-78
2021/11/01 05:34:50;;;;;;;13.10;2.33;;;8.60;99.90;;;;;;4921823;29;20047;-78
2021/11/01 05:37:17;;;;;;;19.00;2.55;;;8.60;99.90;;;;;;4937442;29;20062;-77
2021/11/01 05:39:42;;;;;;;14.32;2.38;;;8.60;99.90;;;;;;4952702;29;20537;-77
2021/11/01 05:42:09;;;;;;;11.32;2.20;;;8.60;99.90;;;;;;4937619;29;20047;-77
2021/11/01 05:44:35;;;;;;;20.73;2.72;;;8.60;99.90;;;;;;4954625;29;20051;-77
2021/11/01 05:47:03;;;;;;;19.08;2.78;;;8.60;99.90;;;;;;4921136;29;20055;-77
2021/11/01 05:49:29;;;;;;;17.10;2.83;;;8.60;99.90;;;;;;4937356;29;20062;-77
2021/11/01 05:51:55;;;;;;;16.05;2.40;;;8.60;99.90;;;;;;4920756;29;20071;-77
2021/11/01 05:54:24;;;;;;;18.13;2.38;;;8.50;99.90;;;;;;4936096;28;20054;-77
2021/11/01 05:57:07;;;;;;;12.30;2.72;;;8.50;99.90;;;;;;4953420;29;20047;-77
2021/11/01 06:02:33;;;;;;;9.38;2.25;;;8.50;99.90;;;;;;4937061;29;20051;-77
2021/11/01 06:05:10;;;;;;;12.38;2.35;;;8.50;99.90;;;;;;4943827;28;20053;-77
2021/11/01 06:10:35;;;;;;;13.52;2.50;;;8.50;99.90;;;;;;4955625;28;20120;-77
2021/11/01 06:15:47;;;;;;;11.07;1.92;;;8.50;99.90;;;;;;4956048;28;20049;-77
2021/11/01 06:18:12;;;;;;;10.15;2.17;;;8.50;99.90;;;;;;4939730;28;20150;-77
2021/11/01 06:20:38;;;;;;;13.70;2.28;;;8.50;99.90;;;;;;4955996;28;20151;-77
2021/11/01 06:23:04;;;;;;;17.52;2.90;;;8.50;99.90;;;;;;4942348;29;20051;-77
2021/11/01 06:25:30;;;;;;;12.32;2.10;;;8.50;99.90;;;;;;4935693;29;20054;-77
2021/11/01 06:27:56;;;;;;;19.33;2.70;;;8.50;99.90;;;;;;4936521;29;20106;-77
2021/11/01 06:30:26;;;;;;;15.85;2.80;;;8.50;99.90;;;;;;4920737;29;20039;-77
2021/11/01 06:40:55;;;;;;;16.33;2.60;;;8.40;99.90;;;;;;4936154;29;20054;-77
2021/11/01 07:15:42;;;;;;;21.90;2.95;;;8.70;99.90;;;;;;4970021;28;20085;-77
2021/11/01 07:18:16;;;;;;;18.95;2.80;;;8.70;99.90;;;;;;4978506;28;20143;-77
2021/11/01 08:23:21;;;;;;;17.65;2.70;;;9.50;99.90;;;;;;4878197;29;20048;-77
2021/11/01 08:28:48;;;;;;;17.98;3.63;;;9.50;99.90;;;;;;4862751;29;20048;-77
2021/11/01 08:47:26;;;;;;;16.23;3.38;;;9.50;99.90;;;;;;4954014;28;20050;-77
2021/11/01 09:20:03;;;;;;;13.15;2.95;;;10.40;99.90;;;;;;4956565;28;20082;-78
2021/11/01 09:27:59;;;;;;;18.40;3.35;;;10.60;99.90;;;;;;4957127;28;20055;-77
2021/11/01 09:35:43;;;;;;;17.15;3.00;;;10.60;99.90;;;;;;4955981;28;20352;-77
2021/11/01 09:41:34;;;;;;;11.85;2.60;;;10.60;99.90;;;;;;4956708;28;20428;-77
2021/11/01 09:44:08;;;;;;;15.98;3.10;;;10.70;99.90;;;;;;4956570;28;20053;-78
2021/11/01 09:46:34;;;;;;;11.77;3.50;;;10.60;99.90;;;;;;4956362;28;20042;-77
2021/11/01 09:49:15;;;;;;;15.70;3.30;;;10.70;99.90;;;;;;4956403;28;20039;-78
2021/11/01 09:51:48;;;;;;;15.38;3.05;;;10.70;99.90;;;;;;4956459;28;20038;-78
2021/11/01 09:54:22;;;;;;;10.98;2.90;;;10.80;99.90;;;;;;4939492;28;20258;-77
2021/11/01 09:59:30;;;;;;;11.20;3.25;;;11.00;99.90;;;;;;4956453;28;20047;-78
2021/11/01 10:01:57;;;;;;;9.82;3.15;;;11.00;99.90;;;;;;4955973;28;20508;-78
2021/11/01 10:04:29;;;;;;;16.00;2.90;;;11.10;99.90;;;;;;4939634;28;20083;-78
2021/11/01 10:07:31;;;;;;;10.70;2.75;;;11.10;99.90;;;;;;4940144;28;20124;-78
2021/11/01 10:10:14;;;;;;;10.00;2.50;;;11.20;99.90;;;;;;4939309;28;20242;-79
2021/11/01 10:12:44;;;;;;;12.55;2.95;;;11.20;99.90;;;;;;4956191;28;20477;-78
2021/11/01 10:18:06;;;;;;;12.10;2.63;;;11.30;99.90;;;;;;4956037;28;20046;-78
2021/11/01 10:20:35;;;;;;;11.10;2.55;;;11.40;99.90;;;;;;4955841;28;20158;-78
2021/11/01 10:23:11;;;;;;;10.32;2.97;;;11.30;99.90;;;;;;4955709;28;20046;-79
2021/11/01 10:25:37;;;;;;;12.95;2.63;;;11.50;99.90;;;;;;4939026;28;20065;-78
2021/11/01 10:28:03;;;;;;;15.63;2.53;;;11.50;99.90;;;;;;4955889;28;20131;-79
2021/11/01 10:30:31;;;;;;;14.07;2.53;;;11.60;99.90;;;;;;4939559;28;20607;-78
2021/11/01 10:32:59;;;;;;;10.98;2.50;;;11.70;99.90;;;;;;4940051;28;20101;-79
2021/11/01 10:35:25;;;;;;;7.55;2.13;;;11.70;99.90;;;;;;4955562;28;20035;-78
2021/11/01 10:37:56;;;;;;;13.65;1.98;;;11.80;99.90;;;;;;4955744;28;20100;-79
2021/11/01 10:40:26;;;;;;;12.18;2.40;;;11.80;99.90;;;;;;4955027;28;20070;-79
2021/11/01 10:42:52;;;;;;;11.77;1.95;;;11.90;99.90;;;;;;4954609;28;20058;-79
2021/11/01 10:45:36;;;;;;;10.90;2.38;;;12.00;99.90;;;;;;4955556;28;20389;-78
2021/11/01 11:10:52;;;;;;;9.48;2.10;;;12.40;99.90;;;;;;4974608;28;20054;-79
2021/11/01 11:12:57;;;;;;;7.40;1.73;;;12.50;99.90;;;;;;4974600;28;20039;-77
2021/11/01 11:15:25;;;;;;;9.68;2.38;;;12.40;99.90;;;;;;4974168;28;20038;-79
2021/11/01 11:23:55;;;;;;;8.20;2.00;;;12.60;99.90;;;;;;4974436;28;20069;-78
2021/11/01 11:32:44;;;;;;;10.63;2.22;;;12.70;99.90;;;;;;4974305;28;20085;-78
2021/11/01 11:38:27;;;;;;;11.13;2.20;;;12.80;99.90;;;;;;4952225;29;20371;-79
2021/11/01 11:48:48;;;;;;;9.88;1.63;;;12.90;99.90;;;;;;4954913;28;20046;-79
2021/11/01 11:51:14;;;;;;;9.40;1.58;;;12.90;99.90;;;;;;4954851;28;20047;-78
2021/11/01 11:54:09;;;;;;;10.55;1.88;;;13.10;99.90;;;;;;4972384;28;20049;-78
2021/11/01 11:56:40;;;;;;;13.27;2.05;;;13.10;99.90;;;;;;4866351;29;20114;-79
2021/11/01 11:59:11;;;;;;;7.18;1.80;;;13.20;99.90;;;;;;4881617;29;20045;-79
2021/11/01 12:01:52;;;;;;;9.75;1.80;;;13.20;99.90;;;;;;4881610;29;20064;-79
2021/11/01 12:04:26;;;;;;;11.02;1.77;;;13.20;99.90;;;;;;4896951;29;20055;-79
2021/11/01 12:07:00;;;;;;;9.15;1.88;;;13.20;99.90;;;;;;4866029;29;20068;-80
2021/11/01 12:09:51;;;;;;;7.35;1.60;;;13.20;99.90;;;;;;4880982;29;20132;-77
2021/11/01 12:17:32;;;;;;;9.73;2.20;;;13.50;99.90;;;;;;4881553;29;20562;-77
2021/11/01 12:20:06;;;;;;;8.30;1.85;;;13.40;99.90;;;;;;4881244;29;20056;-79
2021/11/01 12:22:34;;;;;;;8.95;1.65;;;13.50;99.90;;;;;;4881112;29;20055;-78
2021/11/01 12:25:03;;;;;;;8.82;1.88;;;13.40;99.90;;;;;;4880285;29;20083;-77
2021/11/01 12:27:34;;;;;;;5.72;1.60;;;13.50;99.90;;;;;;4896944;29;20111;-77
2021/11/01 12:30:06;;;;;;;6.57;1.45;;;13.50;99.90;;;;;;4881067;29;20052;-77
2021/11/01 12:32:35;;;;;;;10.10;2.00;;;13.50;99.90;;;;;;4906383;28;20470;-79
2021/11/01 12:37:30;;;;;;;8.10;1.60;;;13.50;99.90;;;;;;4956279;28;20054;-79
2021/11/01 12:59:49;;;;;;;7.15;1.38;;;13.90;99.90;;;;;;4957293;28;19921;-78
2021/11/01 13:02:18;;;;;;;5.50;1.33;;;14.10;99.90;;;;;;4956929;28;20050;-78
2021/11/01 13:04:49;;;;;;;6.22;1.15;;;14.00;99.90;;;;;;4939097;28;20138;-78
2021/11/01 13:18:22;;;;;;;;;;;13.90;99.90;;;;;;4933918;29;20054;-80
2021/11/01 13:21:02;;;;;;;4.25;1.25;;;13.90;99.90;;;;;;4917181;29;19996;-80
2021/11/01 13:23:34;;;;;;;7.30;1.38;;;14.00;99.90;;;;;;4931434;29;20570;-78
2021/11/01 13:37:08;;;;;;;7.95;1.30;;;13.90;99.90;;;;;;4931416;29;20058;-80
2021/11/01 13:39:35;;;;;;;7.40;1.02;;;13.90;99.90;;;;;;4916774;29;20044;-77
2021/11/01 13:42:08;;;;;;;9.27;1.40;;;13.90;99.90;;;;;;4900991;29;20057;-80
2021/11/01 13:44:34;;;;;;;7.13;1.50;;;14.00;99.90;;;;;;4898630;29;20112;-80
2021/11/01 13:47:02;;;;;;;4.90;1.02;;;13.90;99.90;;;;;;4897911;29;20044;-77
2021/11/01 13:49:32;;;;;;;6.90;1.40;;;13.90;99.90;;;;;;4914224;29;20056;-79
2021/11/01 13:52:12;;;;;;;5.15;1.30;;;13.90;99.90;;;;;;4913699;29;20419;-79
2021/11/01 13:54:51;;;;;;;2.72;1.20;;;13.70;99.90;;;;;;4922983;28;20405;-80
2021/11/01 13:57:17;;;;;;;4.60;1.23;;;13.80;99.90;;;;;;4939250;28;20051;-79
2021/11/01 14:13:17;;;;;;;6.33;1.37;;;13.50;99.90;;;;;;4955111;28;20076;-77
2021/11/01 15:05:40;;;;;;;9.07;1.70;;;12.80;99.90;;;;;;4942197;28;20074;-77
2021/11/01 15:20:09;;;;;;;6.05;1.65;;;12.10;99.90;;;;;;4955093;28;20137;-80
2021/11/01 15:25:49;;;;;;;8.27;1.95;;;11.90;99.90;;;;;;4955037;28;20422;-78
2021/11/01 15:28:27;;;;;;;;;;;11.80;99.90;;;;;;4939414;28;20058;-78
2021/11/01 16:19:15;;;;;;;3.90;1.48;;;10.40;99.90;;;;;;4977811;28;20134;-79
2021/11/01 16:21:41;;;;;;;8.40;2.20;;;10.40;99.90;;;;;;4995104;28;20117;-78
2021/11/01 16:24:09;;;;;;;10.18;2.20;;;10.30;99.90;;;;;;4977146;28;20039;-78
2021/11/01 16:26:36;;;;;;;5.68;1.90;;;10.30;99.90;;;;;;4977646;28;20469;-77
2021/11/01 16:29:13;;;;;;;10.10;2.05;;;10.30;99.90;;;;;;4976649;28;20042;-77
2021/11/01 16:31:51;;;;;;;9.18;2.67;;;10.20;99.90;;;;;;4961636;28;20185;-76
2021/11/01 16:34:21;;;;;;;7.82;2.13;;;10.10;99.90;;;;;;4994839;28;20129;-80
2021/11/01 16:39:28;;;;;;;8.55;2.10;;;10.00;99.90;;;;;;4977719;28;20405;-79
2021/11/01 16:41:54;;;;;;;7.47;1.90;;;10.00;99.90;;;;;;4994063;28;20089;-80
2021/11/01 16:44:32;;;;;;;8.80;2.45;;;10.00;99.90;;;;;;4976895;28;20077;-78
2021/11/01 16:46:58;;;;;;;9.05;1.75;;;9.90;99.90;;;;;;4945864;28;20150;-81
2021/11/01 16:49:25;;;;;;;10.63;2.20;;;9.80;99.90;;;;;;4941907;28;20071;-77
2021/11/01 16:51:52;;;;;;;8.23;1.63;;;9.90;99.90;;;;;;4957895;28;20549;-80
2021/11/01 16:54:22;;;;;;;6.32;1.73;;;9.80;99.90;;;;;;4957749;28;20138;-79
2021/11/01 17:04:49;;;;;;;9.48;1.60;;;9.70;99.90;;;;;;4957321;28;20058;-79
2021/11/01 17:26:07;;;;;;;11.93;3.00;;;9.40;99.90;;;;;;4941294;28;20047;-79
2021/11/01 17:37:01;;;;;;;9.18;2.00;;;9.30;99.90;;;;;;4956839;28;20050;-79
2021/11/01 18:51:02;;;;;;;11.60;2.63;;;8.70;99.90;;;;;;4955538;28;20098;-79
2021/11/01 18:53:41;;;;;;;14.73;2.50;;;8.60;99.90;;;;;;4972765;28;20186;-77
2021/11/01 18:56:09;;;;;;;14.80;2.13;;;8.60;99.90;;;;;;4955912;28;20085;-78
2021/11/01 18:58:38;;;;;;;7.50;2.25;;;8.60;99.90;;;;;;4938190;28;20113;-78
2021/11/01 19:01:08;;;;;;;9.73;2.17;;;8.60;99.90;;;;;;4939356;28;20054;-76
2021/11/01 19:03:44;;;;;;;16.35;2.40;;;8.60;99.90;;;;;;4954033;28;20086;-77
2021/11/01 19:06:25;;;;;;;7.57;2.40;;;8.50;99.90;;;;;;4955197;28;20061;-78
2021/11/01 20:06:37;;;;;;;6.68;2.00;;;8.60;99.90;;;;;;4954988;28;20066;-79
2021/11/01 20:14:33;;;;;;;12.73;2.60;;;8.50;99.90;;;;;;4955636;28;20133;-81
2021/11/01 21:26:30;;;;;;;7.15;2.10;;;7.80;99.90;;;;;;4914083;29;20494;-80
2021/11/01 21:28:56;;;;;;;5.78;1.88;;;7.80;99.90;;;;;;4928930;28;20134;-80
2021/11/01 21:31:22;;;;;;;4.70;1.80;;;7.70;99.90;;;;;;4957173;28;20125;-80
2021/11/01 21:33:52;;;;;;;5.53;1.80;;;7.70;99.90;;;;;;4956779;28;20047;-80
2021/11/01 21:36:24;;;;;;;4.25;1.80;;;7.70;99.90;;;;;;4956783;28;20038;-80
2021/11/01 21:38:52;;;;;;;4.55;2.10;;;7.70;99.90;;;;;;4956732;28;20046;-80
2021/11/01 21:41:17;;;;;;;4.95;1.95;;;7.70;99.90;;;;;;4956568;28;20046;-80
2021/11/01 21:43:43;;;;;;;3.92;1.83;;;7.60;99.90;;;;;;4939902;28;20382;-79
2021/11/01 21:46:09;;;;;;;9.57;2.35;;;7.60;99.90;;;;;;4956732;28;20086;-79
2021/11/01 21:48:35;;;;;;;4.50;1.92;;;7.50;99.90;;;;;;4973957;28;20043;-80
2021/11/01 21:51:01;;;;;;;5.60;2.00;;;7.70;99.90;;;;;;4956735;28;20122;-79
2021/11/01 21:53:27;;;;;;;5.40;2.05;;;7.50;99.90;;;;;;4956410;28;20138;-80
2021/11/01 21:55:53;;;;;;;7.97;1.98;;;7.50;99.90;;;;;;4956441;28;20047;-80
2021/11/01 22:24:24;;;;;;;5.30;2.10;;;7.30;99.90;;;;;;4956156;28;19940;-80
2021/11/01 22:31:57;;;;;;;4.47;2.20;;;7.30;99.90;;;;;;4972781;28;20043;-79
2021/11/01 22:40:42;;;;;;;3.53;2.22;;;7.20;99.90;;;;;;4956076;28;20055;-80
2021/11/01 22:48:21;;;;;;;5.32;2.58;;;7.10;99.90;;;;;;4955699;28;20459;-80
2021/11/01 22:56:25;;;;;;;4.40;2.60;;;7.00;99.90;;;;;;4955173;28;20109;-79
2021/11/01 22:58:51;;;;;;;3.95;2.40;;;7.00;99.90;;;;;;4954199;28;20109;-79
2021/11/01 23:33:21;;;;;;;7.93;3.08;;;6.50;99.90;;;;;;4877934;29;20076;-80
2021/11/01 23:35:52;;;;;;;6.30;3.22;;;6.50;99.90;;;;;;4877561;29;20060;-79
2021/11/01 23:38:18;;;;;;;6.70;3.00;;;6.40;99.90;;;;;;4877676;29;20064;-80
2021/11/01 23:40:45;;;;;;;4.68;2.72;;;6.30;99.90;;;;;;4878480;29;20037;-79
2021/11/01 23:43:13;;;;;;;7.70;3.20;;;6.30;99.90;;;;;;4876988;29;20053;-79
2021/11/01 23:45:44;;;;;;;5.78;3.40;;;6.30;99.90;;;;;;4882293;29;20144;-79
2021/11/01 23:48:10;;;;;;;5.45;3.10;;;6.20;99.90;;;;;;4896422;29;20048;-80
2021/11/01 23:50:36;;;;;;;3.60;3.13;;;6.30;99.90;;;;;;4930580;28;20082;-80
2021/11/01 23:53:07;;;;;;;4.35;2.97;;;6.10;99.90;;;;;;4942448;28;20043;-80
2021/11/01 23:55:32;;;;;;;7.03;3.33;;;6.10;99.90;;;;;;4958516;28;20042;-79
2021/11/01 23:57:58;;;;;;;9.05;3.65;;;6.00;99.90;;;;;;4957987;28;20101;-79
